Sunday, August 19, 2018, 1:52 PM EDT
Back to Local

K40B, Clayton Lake

Location: Ashland, ME, United States Lat: 46.617
Local Time: 1:52 PM EDT (17:52 GMT) Lon: -69.533
Time Zone: US/Eastern Elev: 1030 ft

Show me the last for .
Show Decoded

2018-08-19 09:16 METAR K40B 191316Z AUTO VRB04KT 14/10 A3013 RMK AO1 SLP209 T01430103 51016 =
2018-08-19 08:16 METAR K40B 191216Z AUTO 00000KT 12/11 A3012 RMK AO1 SLP206 T01190108 10122 20056
                 51020 P0000 60000 70001 =
2018-08-19 07:16 METAR K40B 191116Z AUTO 00000KT 08/08 A3011 RMK AO1 SLP201 T00790082 52021 =
2018-08-19 06:16 METAR K40B 191016Z AUTO 00000KT 06/06 A3008 RMK AO1 SLP190 T00560060 52018 =
2018-08-19 05:16 METAR K40B 190916Z AUTO 00000KT 06/07 A3006 RMK AO1 SLP182 T00620066 52014 =
2018-08-19 04:16 METAR K40B 190816Z AUTO 00000KT 07/08 A3005 RMK AO1 SLP174 T00710075 52010 =
2018-08-19 03:16 METAR K40B 190716Z AUTO 00000KT 09/09 A3003 RMK AO1 SLP167 T00890093 52008 =
2018-08-19 02:16 METAR K40B 190616Z AUTO 00000KT 09/10 A3002 RMK AO1 SLP162 T00930097 10165 20093
                 52009 60000 =
2018-08-19 01:16 METAR K40B 190516Z AUTO VRB03KT 10/11 A3001 RMK AO1 SLP159 T01030107 402350101
                 52009 =
2018-08-19 00:16 METAR K40B 190416Z AUTO 00000KT 11/12 A3000 RMK AO1 SLP155 T01130116 52010 =
2018-08-18 23:16 METAR K40B 190316Z AUTO 00000KT 12/13 A2999 RMK AO1 SLP149 T01220125 51014 60000
                 =
2018-08-18 22:16 METAR K40B 190216Z AUTO 00000KT 13/13 A2998 RMK AO1 SLP147 T01330132 51019 =
2018-08-18 21:16 METAR K40B 190116Z AUTO 00000KT 15/14 A2997 RMK AO1 SLP143 T01470144 53019 P0000
                 =
2018-08-18 20:16 METAR K40B 190016Z AUTO 00000KT 16/14 A2995 RMK AO1 SLP134 T01640136 10235 20164
                 52013 =
2018-08-18 19:16 METAR K40B 182316Z AUTO 00000KT 18/14 A2993 RMK AO1 SLP128 T01800144 52009 =
2018-08-18 18:16 METAR K40B 182216Z AUTO VRB03KT 22/13 A2992 RMK AO1 SLP125 T02210129 52008 =
2018-08-18 17:16 METAR K40B 182116Z AUTO VRB04G10KT 23/12 A2991 RMK AO1 SLP122 T02260122 52004 =
2018-08-18 16:16 METAR K40B 182016Z AUTO VRB04G16KT 22/12 A2990 RMK AO1 SLP121 T02200120 52003 =
2018-08-18 15:16 METAR K40B 181916Z AUTO VRB05G11KT 22/13 A2990 RMK AO1 SLP120 T02210132 54000 =
2018-08-18 14:16 METAR K40B 181816Z AUTO VRB05G12KT 21/13 A2989 RMK AO1 SLP120 T02130132 10222
                 20147 54000 =

Support USWX by starting your Amazon purchase here.